createdAt,value
2023-02-12T00:00:42.162Z,78.54
2023-02-12T00:04:04.554Z,78.35
2023-02-12T00:07:06.588Z,78.31
2023-02-12T00:10:09.114Z,78.34
2023-02-12T00:13:11.900Z,78.39
2023-02-12T00:16:17.315Z,78.47
2023-02-12T00:19:19.351Z,78.32
2023-02-12T00:22:21.291Z,78.44
2023-02-12T00:25:23.165Z,78.44
2023-02-12T00:28:25.864Z,78.46
2023-02-12T00:31:30.265Z,78.46
2023-02-12T00:34:32.223Z,78.52
2023-02-12T00:37:34.075Z,78.59
2023-02-12T00:40:35.958Z,78.60
2023-02-12T00:43:38.051Z,78.62
2023-02-12T00:46:40.379Z,78.76
2023-02-12T00:49:42.271Z,78.81
2023-02-12T00:52:44.173Z,78.47
2023-02-12T00:55:46.065Z,78.92
2023-02-12T00:58:47.897Z,78.74
2023-02-12T01:01:51.732Z,78.95
2023-02-12T01:04:53.855Z,78.79
2023-02-12T01:07:59.309Z,78.70
2023-02-12T01:11:03.518Z,78.73
2023-02-12T01:14:06.358Z,78.86
2023-02-12T01:17:09.068Z,78.88
2023-02-12T01:20:16.688Z,78.80
2023-02-12T01:23:18.564Z,78.66
2023-02-12T01:26:21.427Z,78.93
2023-02-12T01:29:23.270Z,79.09
2023-02-12T01:32:25.203Z,78.79
2023-02-12T01:35:27.565Z,79.03
2023-02-12T01:38:30.009Z,78.94
2023-02-12T01:41:35.674Z,78.95
2023-02-12T01:44:44.133Z,78.99
2023-02-12T01:47:46.303Z,78.99
2023-02-12T01:50:50.536Z,78.97
2023-02-12T01:53:55.123Z,79.03
2023-02-12T01:56:58.483Z,79.00
2023-02-12T02:00:02.872Z,79.11
2023-02-12T02:03:05.409Z,79.13
2023-02-12T02:06:15.696Z,79.15
2023-02-12T02:09:18.829Z,79.15
2023-02-12T02:12:39.424Z,79.36
2023-02-12T02:15:47.702Z,79.40
2023-02-12T02:19:04.363Z,79.33
2023-02-12T02:22:26.010Z,79.11
2023-02-12T02:25:49.599Z,79.06
2023-02-12T02:29:28.989Z,79.23
2023-02-12T02:32:39.186Z,79.19
2023-02-12T02:35:52.338Z,79.33
2023-02-12T02:39:35.732Z,79.10
2023-02-12T02:42:46.900Z,79.18
2023-02-12T02:45:55.277Z,79.12
2023-02-12T02:49:04.819Z,79.36
2023-02-12T02:52:13.810Z,78.93
2023-02-12T02:55:19.672Z,78.99
2023-02-12T02:58:43.839Z,78.78
2023-02-12T03:01:55.789Z,78.97
2023-02-12T03:05:44.728Z,78.92
2023-02-12T03:08:54.444Z,78.84
2023-02-12T03:12:02.541Z,78.98
2023-02-12T03:15:13.324Z,79.00
2023-02-12T03:19:01.754Z,78.64
2023-02-12T03:22:11.909Z,78.88
2023-02-12T03:25:17.556Z,79.03
2023-02-12T03:28:25.429Z,78.76
2023-02-12T03:31:42.417Z,78.90
2023-02-12T03:34:57.651Z,78.74
2023-02-12T03:38:07.608Z,78.81
2023-02-12T03:41:12.701Z,79.09
2023-02-12T03:44:43.371Z,78.67
2023-02-12T03:48:23.980Z,78.84
2023-02-12T03:51:37.334Z,78.72
2023-02-12T03:54:39.459Z,78.62
2023-02-12T03:57:47.082Z,78.58
2023-02-12T04:00:50.466Z,78.62
2023-02-12T04:03:52.461Z,78.75
2023-02-12T04:06:55.276Z,78.76
2023-02-12T04:09:57.160Z,78.62
2023-02-12T04:13:18.400Z,78.65
2023-02-12T04:16:27.216Z,78.59
2023-02-12T04:19:47.132Z,78.51
2023-02-12T04:23:04.235Z,78.40
2023-02-12T04:26:34.271Z,78.66
2023-02-12T04:29:47.577Z,78.45
2023-02-12T04:33:07.667Z,78.50
2023-02-12T04:36:17.329Z,78.51
2023-02-12T04:39:24.629Z,78.59
2023-02-12T04:42:26.545Z,78.59
2023-02-12T04:45:32.504Z,78.64
2023-02-12T04:48:37.154Z,78.63
2023-02-12T04:51:39.044Z,78.59
2023-02-12T04:54:40.894Z,78.56
2023-02-12T04:57:42.783Z,78.41
2023-02-12T05:00:44.747Z,78.28
2023-02-12T05:03:46.666Z,78.30
2023-02-12T05:06:48.489Z,78.30
2023-02-12T05:09:50.380Z,78.43
2023-02-12T05:12:53.756Z,78.33
2023-02-12T05:15:55.975Z,78.31
2023-02-12T05:18:58.104Z,78.34
2023-02-12T05:22:00.256Z,78.38
2023-02-12T05:25:02.848Z,78.16
2023-02-12T05:28:04.779Z,78.21
2023-02-12T05:31:10.442Z,78.25
2023-02-12T05:34:13.098Z,78.25
2023-02-12T05:37:14.976Z,78.27
2023-02-12T05:40:17.098Z,77.95
2023-02-12T05:43:18.967Z,77.91
2023-02-12T05:46:21.813Z,78.07
2023-02-12T05:49:23.883Z,78.06
2023-02-12T05:52:25.764Z,77.89
2023-02-12T05:55:27.733Z,78.08
2023-02-12T05:58:29.814Z,77.95
2023-02-12T06:01:34.209Z,78.02
2023-02-12T06:04:36.127Z,77.76
2023-02-12T06:07:37.966Z,77.77
2023-02-12T06:10:39.785Z,77.84
2023-02-12T06:13:41.840Z,77.97
2023-02-12T06:16:46.294Z,77.81
2023-02-12T06:19:48.259Z,77.51
2023-02-12T06:22:50.045Z,77.63
2023-02-12T06:25:56.594Z,77.54
2023-02-12T06:28:58.699Z,77.51
2023-02-12T06:32:01.057Z,77.50
2023-02-12T06:35:03.189Z,77.18
2023-02-12T06:38:05.274Z,77.36
2023-02-12T06:41:07.269Z,76.97
2023-02-12T06:44:11.789Z,76.83
2023-02-12T06:47:13.821Z,76.60
2023-02-12T06:50:16.183Z,76.50
2023-02-12T06:53:18.049Z,76.39
2023-02-12T06:56:21.118Z,76.43
2023-02-12T06:59:22.955Z,76.13
2023-02-12T07:02:24.814Z,76.13
2023-02-12T07:05:26.780Z,75.90
2023-02-12T07:08:28.581Z,75.81
2023-02-12T07:11:36.096Z,75.85
2023-02-12T07:14:39.516Z,75.96
2023-02-12T07:17:42.265Z,75.71
2023-02-12T07:20:44.208Z,75.77
2023-02-12T07:23:51.103Z,75.54
2023-02-12T07:26:53.742Z,75.33
2023-02-12T07:29:55.646Z,75.39
2023-02-12T07:32:57.564Z,75.52
2023-02-12T07:36:01.199Z,75.19
2023-02-12T07:39:03.707Z,74.94
2023-02-12T07:42:07.925Z,75.02
2023-02-12T07:45:10.142Z,74.85
2023-02-12T07:48:12.119Z,74.85
2023-02-12T07:51:18.651Z,74.90
2023-02-12T07:54:20.577Z,74.60
2023-02-12T07:57:22.478Z,74.38
2023-02-12T08:00:24.467Z,74.50
2023-02-12T08:03:28.579Z,74.36
2023-02-12T08:06:32.587Z,74.14
2023-02-12T08:09:34.656Z,74.19
2023-02-12T08:12:36.602Z,74.05
2023-02-12T08:15:38.539Z,74.05
2023-02-12T08:18:41.165Z,73.95
2023-02-12T08:21:43.348Z,73.75
2023-02-12T08:24:45.177Z,73.67
2023-02-12T08:27:47.073Z,73.75
2023-02-12T08:30:49.044Z,73.42
2023-02-12T08:33:52.884Z,73.34
2023-02-12T08:36:56.101Z,73.10
2023-02-12T08:39:58.139Z,73.08
2023-02-12T08:43:00.101Z,72.97
2023-02-12T08:46:03.596Z,72.84
2023-02-12T08:49:13.805Z,72.58
2023-02-12T08:52:15.746Z,72.61
2023-02-12T08:55:17.604Z,72.63
2023-02-12T08:58:19.620Z,72.76
2023-02-12T09:01:24.224Z,72.36
2023-02-12T09:04:28.225Z,72.45
2023-02-12T09:07:30.200Z,72.45
2023-02-12T09:10:32.555Z,72.32
2023-02-12T09:13:34.978Z,72.46
2023-02-12T09:16:39.668Z,72.28
2023-02-12T09:19:41.673Z,72.22
2023-02-12T09:22:43.638Z,72.04
2023-02-12T09:25:46.426Z,71.74
2023-02-12T09:28:49.776Z,71.43
2023-02-12T09:31:51.826Z,71.18
2023-02-12T09:34:53.710Z,71.04
2023-02-12T09:37:55.522Z,71.05
2023-02-12T09:41:28.784Z,70.91
2023-02-12T09:44:42.945Z,70.72
2023-02-12T09:48:06.075Z,70.61
2023-02-12T09:51:09.440Z,70.48
2023-02-12T09:54:18.105Z,69.78
2023-02-12T09:57:31.114Z,69.51
2023-02-12T10:00:33.134Z,69.18
2023-02-12T10:03:35.072Z,69.22
2023-02-12T10:06:46.135Z,68.91
2023-02-12T10:10:25.603Z,68.92
2023-02-12T10:13:33.479Z,68.81
2023-02-12T10:17:05.416Z,68.76
2023-02-12T10:20:07.280Z,68.73
2023-02-12T10:23:18.093Z,68.58
2023-02-12T10:26:47.132Z,68.48
2023-02-12T10:29:50.048Z,68.30
2023-02-12T10:33:02.854Z,68.44
2023-02-12T10:36:22.199Z,68.26
2023-02-12T10:39:37.436Z,68.10
2023-02-12T10:42:43.528Z,67.73
2023-02-12T10:45:45.808Z,67.56
2023-02-12T10:48:53.484Z,67.53
2023-02-12T10:52:14.209Z,67.47
2023-02-12T10:55:26.801Z,67.35
2023-02-12T10:58:29.494Z,67.10
2023-02-12T11:01:37.981Z,66.85
2023-02-12T11:04:39.881Z,66.54
2023-02-12T11:07:51.137Z,66.42
2023-02-12T11:10:53.019Z,66.24
2023-02-12T11:14:05.546Z,65.96
2023-02-12T11:17:25.737Z,66.10
2023-02-12T11:20:40.619Z,66.25
2023-02-12T11:23:46.708Z,66.28
2023-02-12T11:26:48.861Z,65.79
2023-02-12T11:30:12.977Z,65.36
2023-02-12T11:33:17.328Z,65.19
2023-02-12T11:36:26.981Z,65.09
2023-02-12T11:39:34.087Z,65.29
2023-02-12T11:42:37.980Z,65.22
2023-02-12T11:45:50.399Z,65.38
2023-02-12T11:48:54.926Z,65.38
2023-02-12T11:51:59.884Z,65.33
2023-02-12T11:55:06.504Z,65.12
2023-02-12T11:58:17.478Z,65.33
2023-02-12T12:01:27.863Z,65.24
2023-02-12T12:04:33.461Z,65.46
2023-02-12T12:07:38.652Z,65.23
2023-02-12T12:10:55.319Z,65.51
2023-02-12T12:14:25.927Z,65.51
2023-02-12T12:18:16.106Z,65.55
2023-02-12T12:21:39.003Z,65.71
2023-02-12T12:24:51.938Z,65.74
2023-02-12T12:28:26.108Z,65.69
2023-02-12T12:31:37.352Z,65.84
2023-02-12T12:34:40.075Z,65.66
2023-02-12T12:37:58.468Z,66.07
2023-02-12T12:41:19.354Z,65.95
2023-02-12T12:45:05.424Z,66.02
2023-02-12T12:48:49.043Z,66.22
2023-02-12T12:52:10.566Z,66.53
2023-02-12T12:55:40.173Z,66.45
2023-02-12T12:58:44.978Z,66.53
2023-02-12T13:02:05.299Z,66.72
2023-02-12T13:05:18.923Z,66.75
2023-02-12T13:08:39.099Z,66.71
2023-02-12T13:11:52.689Z,66.73
2023-02-12T13:15:00.121Z,67.04
2023-02-12T13:18:07.654Z,66.97
2023-02-12T13:21:20.920Z,66.97
2023-02-12T13:24:37.938Z,67.10
2023-02-12T13:27:40.331Z,67.19
2023-02-12T13:30:47.893Z,66.83
2023-02-12T13:33:57.580Z,66.80
2023-02-12T13:37:00.982Z,66.89
2023-02-12T13:40:06.295Z,67.02
2023-02-12T13:43:39.917Z,67.42
2023-02-12T13:47:12.389Z,67.51
2023-02-12T14:37:39.468Z,69.83
2023-02-12T14:40:47.237Z,69.66
2023-02-12T14:44:03.192Z,68.96
2023-02-12T14:47:34.433Z,68.64
2023-02-12T14:50:43.606Z,68.47
2023-02-12T14:53:48.670Z,68.44
2023-02-12T14:56:52.875Z,68.34
2023-02-12T15:00:16.217Z,67.79
2023-02-12T15:03:22.332Z,67.69
2023-02-12T15:06:37.952Z,67.73
2023-02-12T15:10:10.151Z,67.61
2023-02-12T15:13:20.646Z,67.62
2023-02-12T15:16:36.133Z,67.63
2023-02-12T15:20:06.188Z,67.74
2023-02-12T15:23:36.772Z,67.69
2023-02-12T15:26:45.037Z,67.55
2023-02-12T15:29:53.340Z,67.51
2023-02-12T15:32:59.776Z,67.54
2023-02-12T15:36:04.253Z,67.43
2023-02-12T15:39:09.420Z,67.58
2023-02-12T15:42:35.398Z,67.60
2023-02-12T15:45:53.060Z,67.67
2023-02-12T15:48:56.658Z,67.67
2023-02-12T15:52:04.297Z,67.64
2023-02-12T15:55:16.789Z,68.42
2023-02-12T15:58:25.867Z,67.70
2023-02-12T16:01:35.250Z,67.18
2023-02-12T16:04:42.073Z,67.10
2023-02-12T16:07:46.789Z,67.36
2023-02-12T16:10:53.556Z,67.24
2023-02-12T16:14:00.978Z,67.26
2023-02-12T16:17:04.479Z,67.08
2023-02-12T16:20:19.739Z,67.22
2023-02-12T16:23:23.884Z,66.76
2023-02-12T16:26:28.406Z,66.92
2023-02-12T16:29:34.526Z,66.89
2023-02-12T16:32:41.721Z,67.04
2023-02-12T16:35:45.095Z,66.81
2023-02-12T16:39:11.044Z,66.91
2023-02-12T16:42:17.144Z,66.70
2023-02-12T16:45:27.690Z,66.64
2023-02-12T16:48:37.023Z,66.66
2023-02-12T16:51:40.276Z,67.92
2023-02-12T16:54:43.571Z,67.40
2023-02-12T16:57:46.755Z,66.97
2023-02-12T17:00:53.149Z,66.86
2023-02-12T17:03:58.265Z,66.89
2023-02-12T17:07:02.011Z,66.94
2023-02-12T17:10:05.903Z,67.01
2023-02-12T17:13:10.403Z,66.97
2023-02-12T17:16:29.514Z,66.98
2023-02-12T17:19:35.295Z,66.71
2023-02-12T17:22:38.904Z,66.81
2023-02-12T17:25:42.222Z,67.00
2023-02-12T17:28:45.564Z,66.99
2023-02-12T17:31:49.360Z,67.00
2023-02-12T17:34:53.142Z,67.11
2023-02-12T17:37:56.687Z,67.14
2023-02-12T17:41:00.081Z,67.24
2023-02-12T17:44:03.783Z,67.12
2023-02-12T17:47:07.404Z,67.41
2023-02-12T17:50:14.250Z,67.56
2023-02-12T17:53:17.637Z,67.43
2023-02-12T17:56:23.123Z,67.48
2023-02-12T17:59:26.581Z,67.53
2023-02-12T18:02:29.924Z,67.47
2023-02-12T18:05:33.211Z,67.63
2023-02-12T18:08:36.658Z,67.85
2023-02-12T18:11:42.252Z,67.67
2023-02-12T18:14:45.614Z,67.92
2023-02-12T18:17:49.045Z,67.98
2023-02-12T18:20:52.416Z,67.90
2023-02-12T18:23:55.816Z,67.77
2023-02-12T18:26:59.205Z,67.60
2023-02-12T18:30:02.946Z,67.83
2023-02-12T18:33:06.460Z,67.67
2023-02-12T18:36:16.129Z,67.53
2023-02-12T18:39:19.574Z,67.52
2023-02-12T18:42:23.033Z,67.52
2023-02-12T18:45:26.415Z,67.87
2023-02-12T18:48:29.785Z,67.75
2023-02-12T18:51:38.147Z,67.68
2023-02-12T18:54:41.667Z,67.91
2023-02-12T18:57:45.018Z,67.84
2023-02-12T19:00:48.393Z,67.68
2023-02-12T19:03:59.037Z,67.70
2023-02-12T19:07:02.506Z,67.59
2023-02-12T19:10:06.749Z,67.59
2023-02-12T19:13:11.265Z,67.57
2023-02-12T19:16:17.337Z,67.71
2023-02-12T19:19:21.456Z,67.72
2023-02-12T19:22:24.879Z,67.53
2023-02-12T19:25:28.106Z,67.43
2023-02-12T19:28:31.430Z,67.30
2023-02-12T19:31:37.786Z,67.47
2023-02-12T19:34:41.075Z,67.31
2023-02-12T19:37:44.764Z,67.36
2023-02-12T19:40:47.957Z,67.53
2023-02-12T19:43:58.198Z,69.16
2023-02-12T19:47:01.719Z,69.77
2023-02-12T19:50:05.671Z,68.39
2023-02-12T19:53:08.916Z,68.39
2023-02-12T19:56:12.783Z,68.33
2023-02-12T19:59:18.356Z,68.62
2023-02-12T20:02:21.694Z,68.39
2023-02-12T20:05:25.020Z,68.60
2023-02-12T20:08:28.463Z,68.73
2023-02-12T20:11:33.355Z,68.97
2023-02-12T20:14:36.690Z,69.03
2023-02-12T20:17:40.046Z,69.09
2023-02-12T20:20:43.514Z,68.98
2023-02-12T20:23:47.200Z,69.07
2023-02-12T20:26:51.276Z,69.12
2023-02-12T20:29:54.661Z,69.30
2023-02-12T20:32:57.984Z,69.26
2023-02-12T20:36:01.494Z,69.56
2023-02-12T20:39:07.378Z,69.68
2023-02-12T20:42:11.997Z,69.91
2023-02-12T20:45:15.402Z,69.97
2023-02-12T20:48:21.059Z,69.98
2023-02-12T20:51:26.718Z,70.06
2023-02-12T20:54:30.174Z,70.26
2023-02-12T20:57:34.812Z,70.54
2023-02-12T21:00:38.190Z,70.28
2023-02-12T21:03:42.092Z,70.70
2023-02-12T21:06:46.072Z,70.34
2023-02-12T21:09:50.269Z,70.82
2023-02-12T21:12:53.652Z,70.63
2023-02-12T21:16:08.234Z,71.05
2023-02-12T21:19:14.044Z,70.88
2023-02-12T21:22:17.853Z,71.00
2023-02-12T21:25:21.198Z,71.05
2023-02-12T21:28:24.584Z,71.01
2023-02-12T21:31:36.413Z,70.91
2023-02-12T21:34:39.816Z,71.20
2023-02-12T21:37:43.160Z,71.03
2023-02-12T21:40:46.578Z,71.29
2023-02-12T21:43:52.829Z,71.14
2023-02-12T21:46:57.664Z,71.61
2023-02-12T21:50:01.045Z,71.61
2023-02-12T21:53:04.517Z,71.58
2023-02-12T21:56:07.859Z,71.55
2023-02-12T21:59:12.283Z,71.66
2023-02-12T22:02:15.619Z,71.70
2023-02-12T22:05:18.876Z,71.91
2023-02-12T22:08:24.232Z,71.86
2023-02-12T22:11:28.144Z,71.63
2023-02-12T22:14:31.622Z,71.60
2023-02-12T22:17:35.121Z,71.86
2023-02-12T22:20:38.677Z,71.75
2023-02-12T22:23:43.536Z,71.55
2023-02-12T22:26:46.977Z,72.17
2023-02-12T22:29:50.660Z,71.84
2023-02-12T22:32:53.893Z,72.04
2023-02-12T22:36:03.516Z,71.92
2023-02-12T22:39:08.185Z,72.02
2023-02-12T22:42:11.656Z,72.06
2023-02-12T22:45:15.130Z,71.96
2023-02-12T22:48:18.399Z,72.11
2023-02-12T22:51:27.586Z,71.97
2023-02-12T22:54:31.073Z,72.01
2023-02-12T22:57:34.415Z,72.31
2023-02-12T23:00:38.513Z,72.18
2023-02-12T23:03:42.594Z,71.98
2023-02-12T23:06:46.224Z,72.23
2023-02-12T23:09:49.533Z,72.15
2023-02-12T23:12:53.043Z,72.28
2023-02-12T23:15:57.133Z,72.22
2023-02-12T23:19:01.650Z,72.36
2023-02-12T23:22:05.023Z,72.36
2023-02-12T23:25:08.797Z,72.30
2023-02-12T23:28:12.148Z,71.87
2023-02-12T23:31:15.667Z,71.92
2023-02-12T23:34:19.581Z,72.12
2023-02-12T23:37:23.821Z,72.43
2023-02-12T23:40:27.337Z,72.12
2023-02-12T23:43:30.648Z,72.47
2023-02-12T23:46:34.121Z,72.15
2023-02-12T23:49:37.996Z,72.36
2023-02-12T23:52:41.281Z,72.27
2023-02-12T23:55:45.320Z,72.44
2023-02-12T23:58:48.610Z,72.55
